createdAt,value
2018-08-03T00:01:51.681Z,61.80
2018-08-03T00:06:50.573Z,60.90
2018-08-03T00:09:20.195Z,60.60
2018-08-03T00:11:49.819Z,60.20
2018-08-03T00:14:19.574Z,59.80
2018-08-03T00:16:49.147Z,60.20
2018-08-03T00:19:18.776Z,60.00
2018-08-03T00:21:48.388Z,61.00
2018-08-03T00:24:17.979Z,59.80
2018-08-03T00:26:47.698Z,60.10
2018-08-03T00:29:17.310Z,60.40
2018-08-03T00:31:46.907Z,60.40
2018-08-03T00:34:16.665Z,60.40
2018-08-03T00:36:46.429Z,60.50
2018-08-03T00:39:16.748Z,61.00
2018-08-03T00:41:46.394Z,61.10
2018-08-03T00:44:15.951Z,61.80
2018-08-03T00:46:45.529Z,61.80
2018-08-03T00:49:15.175Z,61.70
2018-08-03T00:51:45.055Z,61.70
2018-08-03T00:54:14.666Z,61.60
2018-08-03T00:56:44.305Z,61.10
2018-08-03T00:59:14.497Z,61.10
2018-08-03T01:01:44.091Z,61.30
2018-08-03T01:04:14.077Z,61.00
2018-08-03T01:06:44.494Z,61.20
2018-08-03T01:09:15.184Z,61.60
2018-08-03T01:11:44.943Z,62.20
2018-08-03T01:14:14.655Z,61.80
2018-08-03T01:16:44.304Z,61.90
2018-08-03T01:19:15.110Z,62.10
2018-08-03T01:21:45.704Z,61.80
2018-08-03T01:24:15.273Z,62.00
2018-08-03T01:26:44.853Z,61.90
2018-08-03T01:29:14.407Z,62.00
2018-08-03T01:31:44.049Z,61.70
2018-08-03T01:36:43.244Z,62.60
2018-08-03T01:39:12.891Z,62.80
2018-08-03T01:41:43.332Z,62.70
2018-08-03T01:44:13.056Z,62.60
2018-08-03T01:46:42.705Z,62.50
2018-08-03T01:49:12.311Z,63.00
2018-08-03T01:51:43.524Z,62.80
2018-08-03T01:54:13.239Z,63.20
2018-08-03T01:56:42.803Z,63.30
2018-08-03T01:59:12.461Z,63.10
2018-08-03T02:01:42.080Z,63.00
2018-08-03T02:04:11.676Z,62.90
2018-08-03T02:06:43.184Z,63.30
2018-08-03T02:09:12.824Z,63.00
2018-08-03T02:14:11.711Z,63.30
2018-08-03T02:16:41.326Z,63.30
2018-08-03T02:19:10.930Z,63.10
2018-08-03T02:21:41.799Z,63.00
2018-08-03T02:24:11.366Z,63.30
2018-08-03T02:26:41.068Z,63.40
2018-08-03T02:29:10.661Z,63.20
2018-08-03T02:31:40.294Z,63.50
2018-08-03T02:34:09.978Z,63.70
2018-08-03T02:36:41.106Z,63.10
2018-08-03T02:39:12.081Z,63.40
2018-08-03T02:41:41.682Z,63.80
2018-08-03T02:44:11.223Z,64.00
2018-08-03T02:46:40.834Z,63.60
2018-08-03T02:49:10.408Z,63.80
2018-08-03T02:51:40.916Z,64.00
2018-08-03T02:54:10.509Z,64.10
2018-08-03T02:56:40.220Z,63.90
2018-08-03T02:59:09.829Z,64.00
2018-08-03T03:01:39.469Z,63.90
2018-08-03T03:04:09.084Z,64.20
2018-08-03T03:09:11.292Z,64.40
2018-08-03T03:11:40.934Z,65.10
2018-08-03T03:14:10.526Z,65.00
2018-08-03T03:16:40.080Z,64.20
2018-08-03T03:19:09.622Z,64.10
2018-08-03T03:21:40.385Z,64.40
2018-08-03T03:24:09.985Z,64.70
2018-08-03T03:26:39.626Z,64.60
2018-08-03T03:29:09.201Z,64.70
2018-08-03T03:34:08.136Z,65.20
2018-08-03T03:36:37.961Z,65.50
2018-08-03T03:39:12.388Z,65.20
2018-08-03T03:41:42.257Z,65.30
2018-08-03T03:44:11.902Z,65.40
2018-08-03T03:46:41.571Z,65.90
2018-08-03T03:49:11.159Z,65.50
2018-08-03T03:51:42.303Z,65.90
2018-08-03T03:54:11.922Z,65.80
2018-08-03T03:56:41.531Z,65.80
2018-08-03T03:59:11.160Z,65.80
2018-08-03T04:01:40.831Z,65.60
2018-08-03T04:04:10.418Z,65.80
2018-08-03T04:06:41.586Z,65.50
2018-08-03T04:09:12.779Z,65.40
2018-08-03T04:14:11.941Z,65.80
2018-08-03T04:16:41.542Z,66.00
2018-08-03T04:19:11.688Z,66.00
2018-08-03T04:21:42.224Z,66.10
2018-08-03T04:24:24.596Z,66.20
2018-08-03T04:29:23.763Z,66.00
2018-08-03T04:31:53.834Z,65.80
2018-08-03T04:34:23.965Z,65.80
2018-08-03T04:36:53.583Z,64.90
2018-08-03T04:39:23.822Z,65.30
2018-08-03T04:41:53.554Z,65.10
2018-08-03T04:44:23.301Z,64.50
2018-08-03T04:46:53.490Z,64.40
2018-08-03T04:49:24.652Z,64.10
2018-08-03T04:51:54.535Z,63.20
2018-08-03T04:54:24.448Z,63.40
2018-08-03T04:56:53.976Z,62.80
2018-08-03T04:59:23.716Z,62.40
2018-08-03T05:01:54.091Z,61.80
2018-08-03T05:04:23.712Z,61.90
2018-08-03T05:06:53.446Z,62.00
2018-08-03T05:09:23.142Z,61.00
2018-08-03T05:11:52.718Z,61.50
2018-08-03T05:14:22.374Z,61.80
2018-08-03T05:16:52.243Z,61.50
2018-08-03T05:19:21.810Z,61.00
2018-08-03T05:21:51.421Z,60.60
2018-08-03T05:24:21.086Z,59.70
2018-08-03T05:26:50.655Z,59.20
2018-08-03T05:29:20.273Z,59.10
2018-08-03T05:31:49.863Z,58.60
2018-08-03T05:34:19.487Z,58.80
2018-08-03T05:36:49.029Z,58.70
2018-08-03T05:39:18.598Z,57.40
2018-08-03T05:41:48.161Z,57.00
2018-08-03T05:44:17.800Z,58.20
2018-08-03T05:46:47.424Z,56.70
2018-08-03T05:49:17.091Z,57.00
2018-08-03T05:51:46.722Z,56.50
2018-08-03T05:54:16.278Z,56.30
2018-08-03T05:56:45.851Z,55.70
2018-08-03T05:59:15.494Z,55.30
2018-08-03T06:01:45.047Z,56.00
2018-08-03T06:04:14.685Z,55.80
2018-08-03T06:06:44.424Z,54.40
2018-08-03T06:09:14.053Z,53.80
2018-08-03T06:11:43.655Z,54.10
2018-08-03T06:14:13.226Z,52.80
2018-08-03T06:16:42.801Z,52.80
2018-08-03T06:19:12.384Z,53.30
2018-08-03T06:21:43.149Z,52.70
2018-08-03T06:24:12.766Z,52.70
2018-08-03T06:26:42.365Z,51.10
2018-08-03T06:29:11.956Z,50.40
2018-08-03T06:31:41.621Z,50.50
2018-08-03T06:34:11.258Z,51.50
2018-08-03T06:36:42.335Z,50.80
2018-08-03T06:39:12.216Z,51.50
2018-08-03T06:41:42.457Z,51.00
2018-08-03T06:44:12.019Z,51.50
2018-08-03T06:46:41.689Z,51.20
2018-08-03T06:49:11.307Z,51.40
2018-08-03T06:51:42.143Z,50.90
2018-08-03T06:54:11.757Z,49.80
2018-08-03T06:56:41.334Z,49.60
2018-08-03T06:59:10.944Z,48.60
2018-08-03T07:01:40.604Z,48.80
2018-08-03T07:04:10.306Z,48.50
2018-08-03T07:06:41.207Z,48.20
2018-08-03T07:09:12.452Z,47.30
2018-08-03T07:11:42.074Z,46.80
2018-08-03T07:14:11.705Z,47.00
2018-08-03T07:16:41.295Z,46.60
2018-08-03T07:19:10.927Z,46.00
2018-08-03T07:21:42.398Z,46.30
2018-08-03T07:24:12.086Z,47.50
2018-08-03T07:29:10.872Z,47.40
2018-08-03T07:31:40.491Z,47.60
2018-08-03T07:34:10.243Z,47.80
2018-08-03T07:36:40.979Z,49.50
2018-08-03T07:39:10.628Z,47.90
2018-08-03T07:41:40.301Z,47.30
2018-08-03T07:44:09.898Z,46.50
2018-08-03T07:46:39.535Z,45.90
2018-08-03T07:49:09.180Z,45.80
2018-08-03T07:51:39.377Z,45.60
2018-08-03T07:54:09.056Z,46.00
2018-08-03T07:56:38.606Z,44.10
2018-08-03T07:59:08.172Z,43.50
2018-08-03T08:01:37.963Z,43.10
2018-08-03T08:04:07.603Z,42.40
2018-08-03T08:06:40.481Z,42.00
2018-08-03T08:09:11.961Z,43.10
2018-08-03T08:11:42.134Z,42.20
2018-08-03T08:16:42.889Z,41.90
2018-08-03T08:19:12.715Z,42.50
2018-08-03T08:21:43.115Z,41.30
2018-08-03T08:24:12.881Z,39.20
2018-08-03T08:26:42.533Z,39.00
2018-08-03T08:29:12.143Z,38.90
2018-08-03T08:31:41.805Z,39.60
2018-08-03T08:34:11.481Z,39.70
2018-08-03T08:36:42.742Z,38.10
2018-08-03T08:39:13.922Z,37.10
2018-08-03T08:41:43.931Z,38.30
2018-08-03T08:44:14.353Z,39.20
2018-08-03T08:46:44.148Z,37.00
2018-08-03T08:49:13.933Z,37.00
2018-08-03T08:51:44.196Z,36.10
2018-08-03T08:54:13.982Z,35.70
2018-08-03T08:56:43.574Z,35.40
2018-08-03T08:59:13.343Z,35.80
2018-08-03T09:01:43.058Z,35.10
2018-08-03T09:04:12.877Z,35.60
2018-08-03T09:06:44.172Z,34.70
2018-08-03T09:09:13.848Z,32.90
2018-08-03T09:11:43.500Z,32.00
2018-08-03T09:14:13.269Z,32.30
2018-08-03T09:16:42.852Z,33.00
2018-08-03T09:19:12.456Z,33.10
2018-08-03T09:21:43.787Z,34.90
2018-08-03T09:24:13.465Z,34.50
2018-08-03T09:26:43.221Z,33.40
2018-08-03T09:29:12.879Z,34.60
2018-08-03T09:31:42.733Z,36.00
2018-08-03T09:34:12.303Z,37.40
2018-08-03T09:36:43.965Z,35.80
2018-08-03T09:39:13.570Z,36.50
2018-08-03T09:41:43.433Z,32.90
2018-08-03T09:44:13.262Z,32.00
2018-08-03T09:46:43.289Z,33.40
2018-08-03T09:49:12.999Z,34.30
2018-08-03T09:51:44.173Z,35.10
2018-08-03T09:54:14.023Z,34.90
2018-08-03T09:56:44.010Z,35.10
2018-08-03T09:59:13.643Z,33.50
2018-08-03T10:01:44.024Z,34.50
2018-08-03T10:04:13.589Z,35.80
2018-08-03T10:06:45.061Z,33.00
2018-08-03T10:09:14.742Z,34.00
2018-08-03T10:11:44.905Z,33.40
2018-08-03T10:14:14.959Z,33.30
2018-08-03T10:16:45.056Z,33.00
2018-08-03T10:19:14.757Z,32.80
2018-08-03T10:21:45.410Z,32.60
2018-08-03T10:24:15.121Z,32.70
2018-08-03T10:26:45.269Z,31.10
2018-08-03T10:29:15.043Z,32.10
2018-08-03T10:31:45.417Z,31.70
2018-08-03T10:34:16.084Z,29.70
2018-08-03T10:36:46.559Z,29.10
2018-08-03T10:41:46.567Z,30.00
2018-08-03T10:44:16.236Z,30.00
2018-08-03T10:46:46.465Z,29.80
2018-08-03T10:49:16.245Z,30.20
2018-08-03T10:54:16.158Z,32.00
2018-08-03T10:56:47.250Z,31.50
2018-08-03T10:59:16.964Z,30.30
2018-08-03T11:01:47.385Z,29.70
2018-08-03T11:04:17.071Z,29.60
2018-08-03T11:06:47.216Z,29.40
2018-08-03T11:09:16.944Z,30.50
2018-08-03T11:11:47.265Z,31.10
2018-08-03T11:14:17.030Z,30.90
2018-08-03T11:16:47.363Z,30.10
2018-08-03T11:19:17.261Z,30.40
2018-08-03T11:21:47.367Z,30.20
2018-08-03T11:26:46.902Z,30.20
2018-08-03T11:29:16.649Z,30.80
2018-08-03T11:31:46.823Z,31.10
2018-08-03T11:34:16.584Z,31.90
2018-08-03T11:36:46.669Z,31.20
2018-08-03T11:39:16.402Z,32.20
2018-08-03T11:41:46.470Z,31.90
2018-08-03T11:44:16.651Z,31.30
2018-08-03T11:49:16.682Z,30.70
2018-08-03T11:51:46.931Z,31.50
2018-08-03T11:54:16.524Z,31.60
2018-08-03T11:56:46.496Z,31.30
2018-08-03T11:59:16.226Z,31.70
2018-08-03T12:01:46.075Z,30.80
2018-08-03T12:04:16.025Z,31.10
2018-08-03T12:06:45.822Z,31.50
2018-08-03T12:09:15.476Z,31.30
2018-08-03T12:11:45.176Z,30.30
2018-08-03T12:14:20.935Z,31.00
2018-08-03T12:16:51.624Z,31.50
2018-08-03T12:19:21.345Z,30.90
2018-08-03T12:21:51.799Z,30.90
2018-08-03T12:24:21.608Z,31.00
2018-08-03T12:26:52.058Z,30.30
2018-08-03T12:29:21.712Z,31.40
2018-08-03T12:31:52.340Z,30.90
2018-08-03T12:34:22.182Z,29.80
2018-08-03T12:36:52.543Z,29.70
2018-08-03T12:39:22.579Z,29.20
2018-08-03T12:41:52.721Z,30.40
2018-08-03T12:44:22.344Z,30.10
2018-08-03T12:46:52.683Z,29.50
2018-08-03T12:49:23.023Z,29.70
2018-08-03T12:51:53.392Z,30.00
2018-08-03T12:54:23.008Z,29.90
2018-08-03T12:56:53.705Z,29.00
2018-08-03T12:59:23.310Z,27.60
2018-08-03T13:02:06.969Z,27.90
2018-08-03T13:04:36.574Z,26.40
2018-08-03T13:07:06.246Z,26.10
2018-08-03T13:09:35.835Z,26.50
2018-08-03T13:12:06.008Z,26.10
2018-08-03T13:14:35.628Z,26.30
2018-08-03T13:17:05.224Z,25.40
2018-08-03T13:19:34.815Z,25.60
2018-08-03T13:22:04.538Z,26.30
2018-08-03T13:24:34.137Z,25.10
2018-08-03T13:27:03.813Z,25.50
2018-08-03T13:29:33.529Z,25.20
2018-08-03T13:32:04.216Z,25.10
2018-08-03T13:34:33.839Z,25.20
2018-08-03T13:37:03.675Z,25.20
2018-08-03T13:39:33.624Z,24.90
2018-08-03T13:42:03.445Z,25.00
2018-08-03T13:44:33.430Z,24.70
2018-08-03T13:47:03.309Z,23.90
2018-08-03T13:49:33.049Z,24.20
2018-08-03T13:52:03.299Z,23.90
2018-08-03T13:54:33.717Z,24.20
2018-08-03T13:57:03.498Z,24.50
2018-08-03T13:59:33.281Z,24.60
2018-08-03T14:02:29.179Z,24.60
2018-08-03T14:04:59.258Z,25.70
2018-08-03T14:07:29.380Z,25.50
2018-08-03T14:10:01.304Z,25.90
2018-08-03T14:12:31.090Z,26.30
2018-08-03T14:15:00.815Z,25.90
2018-08-03T14:17:30.597Z,26.60
2018-08-03T14:20:01.104Z,26.60
2018-08-03T14:22:31.246Z,26.60
2018-08-03T14:25:00.993Z,26.50
2018-08-03T14:27:30.696Z,25.90
2018-08-03T14:30:00.381Z,26.10
2018-08-03T14:32:30.308Z,26.00
2018-08-03T14:35:01.060Z,27.10
2018-08-03T14:37:30.820Z,26.90
2018-08-03T14:40:00.517Z,27.50
2018-08-03T14:42:30.317Z,27.70
2018-08-03T14:45:00.095Z,27.10
2018-08-03T14:47:30.133Z,26.80
2018-08-03T14:50:01.249Z,27.40
2018-08-03T14:55:00.434Z,27.40
2018-08-03T14:57:30.111Z,27.20
2018-08-03T15:00:00.623Z,27.50
2018-08-03T15:05:01.218Z,27.50
2018-08-03T15:07:30.809Z,28.00
2018-08-03T15:10:00.823Z,27.70
2018-08-03T15:12:30.483Z,27.50
2018-08-03T15:15:01.082Z,27.20
2018-08-03T15:17:30.894Z,27.20
2018-08-03T15:20:01.812Z,27.60
2018-08-03T15:22:31.565Z,27.10
2018-08-03T15:25:01.444Z,27.10
2018-08-03T15:27:31.564Z,27.50
2018-08-03T15:30:01.820Z,27.90
2018-08-03T15:32:31.762Z,27.70
2018-08-03T15:35:02.668Z,28.30
2018-08-03T15:37:32.483Z,28.20
2018-08-03T15:40:03.306Z,27.90
2018-08-03T15:42:33.017Z,28.00
2018-08-03T15:47:32.322Z,27.90
2018-08-03T15:50:03.554Z,28.80
2018-08-03T15:52:33.319Z,28.70
2018-08-03T15:55:03.256Z,29.00
2018-08-03T15:57:33.024Z,29.20
2018-08-03T16:00:04.330Z,29.20
2018-08-03T16:02:34.011Z,29.20
2018-08-03T16:05:05.288Z,29.40
2018-08-03T16:07:34.983Z,29.40
2018-08-03T16:12:33.961Z,30.10
2018-08-03T16:15:04.551Z,30.50
2018-08-03T16:17:34.201Z,30.20
2018-08-03T16:20:04.767Z,30.50
2018-08-03T16:22:34.390Z,31.10
2018-08-03T16:25:06.469Z,31.40
2018-08-03T16:27:36.194Z,31.50
2018-08-03T16:30:07.936Z,31.40
2018-08-03T16:32:37.554Z,31.50
2018-08-03T16:35:08.322Z,32.10
2018-08-03T16:37:38.591Z,31.90
2018-08-03T16:40:09.778Z,31.90
2018-08-03T16:42:40.850Z,31.70
2018-08-03T16:45:11.181Z,31.50
2018-08-03T16:47:41.148Z,32.30
2018-08-03T16:50:10.820Z,32.20
2018-08-03T16:52:40.820Z,32.30
2018-08-03T16:55:10.626Z,32.60
2018-08-03T16:57:41.418Z,32.50
2018-08-03T17:00:11.193Z,32.70
2018-08-03T17:02:42.298Z,32.90
2018-08-03T17:05:12.100Z,33.30
2018-08-03T17:07:41.807Z,33.60
2018-08-03T17:10:11.544Z,33.60
2018-08-03T17:12:42.399Z,33.40
2018-08-03T17:15:12.171Z,33.60
2018-08-03T17:17:41.880Z,33.60
2018-08-03T17:20:11.646Z,34.20
2018-08-03T17:22:41.364Z,34.10
2018-08-03T17:25:10.990Z,34.10
2018-08-03T17:27:42.744Z,34.10
2018-08-03T17:32:41.917Z,34.20
2018-08-03T17:37:41.200Z,34.90
2018-08-03T17:40:10.871Z,35.20
2018-08-03T17:42:41.921Z,34.60
2018-08-03T17:45:11.524Z,34.50
2018-08-03T17:47:41.214Z,34.50
2018-08-03T17:50:10.949Z,35.10
2018-08-03T17:52:44.653Z,35.30
2018-08-03T17:55:14.297Z,35.30
2018-08-03T17:57:44.640Z,35.20
2018-08-03T18:00:14.279Z,35.00
2018-08-03T18:02:44.472Z,35.50
2018-08-03T18:05:14.279Z,35.90
2018-08-03T18:07:44.011Z,36.30
2018-08-03T18:10:13.725Z,36.50
2018-08-03T18:12:44.304Z,36.80
2018-08-03T18:15:14.010Z,37.30
2018-08-03T18:17:43.749Z,37.30
2018-08-03T18:20:13.429Z,37.80
2018-08-03T18:22:43.033Z,37.70
2018-08-03T18:25:12.653Z,38.00
2018-08-03T18:27:43.214Z,39.00
2018-08-03T18:30:13.151Z,39.00
2018-08-03T18:32:42.896Z,39.50
2018-08-03T18:35:12.559Z,38.70
2018-08-03T18:37:42.171Z,38.80
2018-08-03T18:40:11.966Z,39.20
2018-08-03T18:42:42.497Z,39.20
2018-08-03T18:45:12.341Z,39.60
2018-08-03T18:47:42.087Z,39.90
2018-08-03T18:50:12.186Z,39.60
2018-08-03T18:52:41.871Z,40.20
2018-08-03T18:55:13.345Z,40.50
2018-08-03T18:57:43.407Z,40.60
2018-08-03T19:00:13.125Z,40.50
2018-08-03T19:02:42.780Z,40.80
2018-08-03T19:05:12.863Z,41.00
2018-08-03T19:07:42.585Z,41.50
2018-08-03T19:10:12.616Z,41.90
2018-08-03T19:12:43.237Z,41.60
2018-08-03T19:15:13.466Z,41.60
2018-08-03T19:17:43.157Z,41.70
2018-08-03T19:20:13.212Z,42.10
2018-08-03T19:22:42.870Z,42.80
2018-08-03T19:25:13.323Z,42.20
2018-08-03T19:27:44.163Z,42.90
2018-08-03T19:30:14.347Z,44.10
2018-08-03T19:32:44.061Z,44.10
2018-08-03T19:35:13.697Z,44.90
2018-08-03T19:37:43.367Z,45.20
2018-08-03T19:40:12.957Z,45.00
2018-08-03T19:42:43.261Z,46.00
2018-08-03T19:45:12.979Z,44.60
2018-08-03T19:47:42.568Z,46.80
2018-08-03T19:50:12.187Z,47.00
2018-08-03T19:52:41.868Z,46.90
2018-08-03T19:55:11.418Z,47.80
2018-08-03T19:57:41.913Z,48.00
2018-08-03T20:00:13.107Z,46.70
2018-08-03T20:02:42.721Z,47.50
2018-08-03T20:05:12.430Z,48.10
2018-08-03T20:07:42.061Z,47.70
2018-08-03T20:10:11.672Z,47.70
2018-08-03T20:12:42.324Z,47.70
2018-08-03T20:15:12.022Z,47.60
2018-08-03T20:17:41.789Z,47.60
2018-08-03T20:20:11.604Z,48.10
2018-08-03T20:22:41.371Z,48.00
2018-08-03T20:25:12.258Z,47.70
2018-08-03T20:27:43.787Z,47.90
2018-08-03T20:30:14.244Z,47.90
2018-08-03T20:32:44.008Z,47.90
2018-08-03T20:35:13.770Z,47.80
2018-08-03T20:37:43.490Z,48.10
2018-08-03T20:40:13.519Z,48.10
2018-08-03T20:42:44.094Z,48.30
2018-08-03T20:45:14.007Z,48.70
2018-08-03T20:47:43.665Z,48.60
2018-08-03T20:55:12.840Z,50.00
2018-08-03T20:57:43.925Z,49.90
2018-08-03T21:00:13.743Z,50.90
2018-08-03T21:02:43.736Z,54.10
2018-08-03T21:05:13.446Z,52.00
2018-08-03T21:07:43.167Z,55.00
2018-08-03T21:10:14.017Z,54.80
2018-08-03T21:12:44.483Z,53.10
2018-08-03T21:15:14.554Z,51.80
2018-08-03T21:17:44.551Z,51.40
2018-08-03T21:20:14.226Z,51.20
2018-08-03T21:22:44.176Z,51.50
2018-08-03T21:25:14.457Z,51.80
2018-08-03T21:27:45.222Z,51.50
2018-08-03T21:30:15.084Z,52.50
2018-08-03T21:32:44.738Z,52.20
2018-08-03T21:35:14.815Z,51.50
2018-08-03T21:37:44.771Z,51.50
2018-08-03T21:40:14.416Z,51.50
2018-08-03T21:42:44.297Z,51.30
2018-08-03T21:45:13.922Z,51.50
2018-08-03T21:47:43.623Z,52.00
2018-08-03T21:50:13.251Z,54.60
2018-08-03T21:52:42.912Z,54.70
2018-08-03T21:55:13.179Z,54.70
2018-08-03T21:57:44.095Z,56.00
2018-08-03T22:00:19.383Z,56.70
2018-08-03T22:02:49.253Z,55.30
2018-08-03T22:05:18.952Z,55.00
2018-08-03T22:07:48.895Z,58.40
2018-08-03T22:10:18.612Z,57.50
2018-08-03T22:12:48.297Z,57.20
2018-08-03T22:15:17.910Z,55.60
2018-08-03T22:17:47.557Z,55.50
2018-08-03T22:20:17.250Z,55.20
2018-08-03T22:22:46.867Z,55.90
2018-08-03T22:25:16.528Z,56.50
2018-08-03T22:27:46.136Z,57.00
2018-08-03T22:30:16.203Z,56.40
2018-08-03T22:32:45.940Z,56.40
2018-08-03T22:35:15.473Z,56.00
2018-08-03T22:37:45.201Z,56.70
2018-08-03T22:40:14.879Z,57.40
2018-08-03T22:42:44.663Z,57.60
2018-08-03T22:45:14.297Z,56.70
2018-08-03T22:47:43.884Z,57.30
2018-08-03T22:50:13.508Z,55.90
2018-08-03T22:52:43.121Z,55.80
2018-08-03T22:55:12.733Z,56.80
2018-08-03T22:57:42.967Z,56.60
2018-08-03T23:00:12.627Z,57.20
2018-08-03T23:02:42.262Z,57.50
2018-08-03T23:05:11.910Z,57.90
2018-08-03T23:07:41.543Z,57.80
2018-08-03T23:10:11.156Z,58.10
2018-08-03T23:12:41.912Z,58.00
2018-08-03T23:15:11.544Z,58.70
2018-08-03T23:17:41.153Z,58.70
2018-08-03T23:20:10.738Z,58.50
2018-08-03T23:25:09.771Z,58.50
2018-08-03T23:27:41.160Z,57.20
2018-08-03T23:30:11.594Z,57.50
2018-08-03T23:32:42.145Z,56.70
2018-08-03T23:35:12.074Z,56.60
2018-08-03T23:37:42.284Z,55.70
2018-08-03T23:42:42.977Z,55.50
2018-08-03T23:45:12.802Z,55.40
2018-08-03T23:47:42.749Z,54.90
2018-08-03T23:50:16.195Z,54.80
2018-08-03T23:52:46.859Z,54.90
2018-08-03T23:55:16.788Z,54.80
2018-08-03T23:57:46.968Z,55.00
